Time;durP1;ratioP1;P1;durP2;ratioP2;P2;SDS_P1;SDS_P2;PMS_P1;PMS_P2;Temp;Humidity;BMP_temperature;BMP_pressure;BME280_temperature;BME280_humidity;BME280_pressure;Samples;Min_cycle;Max_cycle;Signal;HPM_P1;HPM_P2
2023/04/29 00:00:07;;;;;;;;;;;9.10;99.90;;;;;;5055870;28;19931;-65
2023/04/29 00:02:33;;;;;;;;;;;9.10;99.90;;;;;;5073443;28;19924;-65
2023/04/29 00:04:59;;;;;;;;;;;9.00;99.90;;;;;;5055494;28;20274;-65
2023/04/29 00:07:24;;;;;;;;;;;9.10;99.90;;;;;;5072539;28;19924;-65
2023/04/29 00:09:50;;;;;;;;;;;9.00;99.90;;;;;;5073318;28;19935;-67
2023/04/29 00:12:16;;;;;;;;;;;9.10;99.90;;;;;;5071563;28;19925;-66
2023/04/29 00:14:42;;;;;;;;;;;9.00;99.90;;;;;;5071961;28;20158;-65
2023/04/29 00:17:08;;;;;;;;;;;9.00;99.90;;;;;;5071967;28;20027;-67
2023/04/29 00:19:33;;;;;;;;;;;9.00;99.90;;;;;;5072990;28;19959;-66
2023/04/29 00:22:00;;;;;;;;;;;8.90;99.90;;;;;;5055408;28;20022;-65
2023/04/29 00:24:26;;;;;;;;;;;9.00;99.90;;;;;;5071717;28;19982;-65
2023/04/29 00:26:51;;;;;;;;;;;9.00;99.90;;;;;;5071962;28;20340;-65
2023/04/29 00:29:17;;;;;;;;;;;9.00;99.90;;;;;;5054937;28;20021;-65
2023/04/29 00:31:43;;;;;;;;;;;9.00;99.90;;;;;;5071521;28;19985;-65
2023/04/29 00:34:09;;;;;;;;;;;9.00;99.90;;;;;;5055058;28;20402;-66
2023/04/29 00:36:35;;;;;;;;;;;9.00;99.90;;;;;;5070707;28;19925;-65
2023/04/29 00:39:02;;;;;;;;;;;8.90;99.90;;;;;;5054390;28;20396;-66
2023/04/29 00:41:28;;;;;;;;;;;9.00;99.90;;;;;;5072109;28;19924;-66
2023/04/29 00:43:54;;;;;;;;;;;8.90;99.90;;;;;;5072350;28;19977;-67
2023/04/29 00:46:20;;;;;;;;;;;8.90;99.90;;;;;;5072298;28;19932;-67
2023/04/29 00:48:45;;;;;;;;;;;8.90;99.90;;;;;;5072562;28;20014;-66
2023/04/29 00:51:12;;;;;;;;;;;8.90;99.90;;;;;;5071652;28;19929;-66
2023/04/29 00:53:38;;;;;;;;;;;8.80;99.90;;;;;;5054402;28;19924;-65
2023/04/29 00:56:06;;;;;;;;;;;8.90;99.90;;;;;;5071480;28;20354;-65
2023/04/29 00:58:34;;;;;;;;;;;8.80;99.90;;;;;;5072065;28;19925;-65
2023/04/29 01:01:03;;;;;;;;;;;8.80;99.90;;;;;;5071444;28;19944;-66
2023/04/29 01:03:31;;;;;;;;;;;8.80;99.90;;;;;;5071862;28;19954;-65
2023/04/29 01:06:05;;;;;;;;;;;8.80;99.90;;;;;;5072175;28;19969;-65
2023/04/29 01:08:37;;;;;;;;;;;8.80;99.90;;;;;;5071142;28;19925;-65
2023/04/29 01:11:06;;;;;;;;;;;8.80;99.90;;;;;;5087856;28;20385;-66
2023/04/29 01:13:51;;;;;;;;;;;8.80;99.90;;;;;;5053907;28;19925;-65
2023/04/29 01:16:24;;;;;;;;;;;8.80;99.90;;;;;;5070952;28;19924;-65
2023/04/29 01:18:53;;;;;;;;;;;8.80;99.90;;;;;;5072236;28;20351;-65
2023/04/29 01:21:20;;;;;;;;;;;8.70;99.90;;;;;;5071969;28;19925;-65
2023/04/29 01:23:45;;;;;;;;;;;8.80;99.90;;;;;;5071186;28;19968;-65
2023/04/29 01:26:11;;;;;;;;;;;8.80;99.90;;;;;;5070806;28;19978;-66
2023/04/29 01:28:45;;;;;;;;;;;8.80;99.90;;;;;;5070772;28;19925;-65
2023/04/29 01:31:30;;;;;;;;;;;8.70;99.90;;;;;;5070766;28;20433;-65
2023/04/29 01:34:08;;;;;;;;;;;8.70;99.90;;;;;;5070804;28;19925;-65
2023/04/29 01:36:34;;;;;;;;;;;8.70;99.90;;;;;;5070170;28;20340;-65
2023/04/29 01:39:00;;;;;;;;;;;8.70;99.90;;;;;;5071884;28;19928;-65
2023/04/29 01:41:46;;;;;;;;;;;8.70;99.90;;;;;;5071629;28;20011;-65
2023/04/29 01:44:14;;;;;;;;;;;8.70;99.90;;;;;;5087324;28;19924;-65
2023/04/29 01:46:40;;;;;;;;;;;8.60;99.90;;;;;;5070108;28;19924;-65
2023/04/29 01:49:06;;;;;;;;;;;8.60;99.90;;;;;;5073639;28;20278;-65
2023/04/29 01:51:33;;;;;;;;;;;8.50;99.90;;;;;;5074619;28;19924;-66
2023/04/29 01:53:59;;;;;;;;;;;8.50;99.90;;;;;;5075890;28;20293;-66
2023/04/29 01:56:24;;;;;;;;;;;8.40;99.90;;;;;;5074572;28;19924;-66
2023/04/29 01:58:50;;;;;;;;;;;8.40;99.90;;;;;;5074671;28;19928;-66
2023/04/29 02:01:15;;;;;;;;;;;8.40;99.90;;;;;;5074401;28;20041;-66
2023/04/29 02:03:41;;;;;;;;;;;8.20;99.90;;;;;;5075396;28;19931;-66
2023/04/29 02:06:07;;;;;;;;;;;8.30;99.90;;;;;;5075740;28;19924;-66
2023/04/29 02:08:33;;;;;;;;;;;8.20;99.90;;;;;;5074114;28;19925;-66
2023/04/29 02:10:59;;;;;;;;;;;8.10;99.90;;;;;;5074603;28;19931;-66
2023/04/29 02:13:25;;;;;;;;;;;8.10;99.90;;;;;;5075021;28;19986;-67
2023/04/29 02:15:51;;;;;;;;;;;8.00;99.90;;;;;;5075498;28;20285;-65
2023/04/29 02:18:16;;;;;;;;;;;8.00;99.90;;;;;;5075438;28;19925;-65
2023/04/29 02:20:42;;;;;;;;;;;8.00;99.90;;;;;;5074013;28;20015;-66
2023/04/29 02:23:07;;;;;;;;;;;8.00;99.90;;;;;;5057726;28;20079;-65
2023/04/29 02:25:33;;;;;;;;;;;8.00;99.90;;;;;;5074891;28;19946;-65
2023/04/29 02:27:59;;;;;;;;;;;8.00;99.90;;;;;;5057231;28;19924;-65
2023/04/29 02:30:24;;;;;;;;;;;8.00;99.90;;;;;;5040625;28;19925;-65
2023/04/29 02:32:50;;;;;;;;;;;8.00;99.90;;;;;;5039997;28;20027;-65
2023/04/29 02:35:16;;;;;;;;;;;8.00;99.90;;;;;;5057042;28;19932;-65
2023/04/29 02:37:41;;;;;;;;;;;8.00;99.90;;;;;;5073278;28;19997;-65
2023/04/29 02:40:07;;;;;;;;;;;8.00;99.90;;;;;;5056887;28;19954;-65
2023/04/29 02:42:33;;;;;;;;;;;8.00;99.90;;;;;;5073063;28;19931;-66
2023/04/29 02:44:58;;;;;;;;;;;8.10;99.90;;;;;;5074943;28;19925;-66
2023/04/29 02:47:24;;;;;;;;;;;8.10;99.90;;;;;;5074420;28;20328;-66
2023/04/29 02:49:49;;;;;;;;;;;8.10;99.90;;;;;;5074562;28;19929;-66
2023/04/29 02:52:16;;;;;;;;;;;8.10;99.90;;;;;;5057136;28;20325;-66
2023/04/29 02:54:42;;;;;;;;;;;8.20;99.90;;;;;;5073143;28;19924;-65
2023/04/29 02:57:07;;;;;;;;;;;8.20;99.90;;;;;;5073679;28;19928;-65
2023/04/29 02:59:33;;;;;;;;;;;8.20;99.90;;;;;;5072823;28;19931;-66
2023/04/29 03:02:00;;;;;;;;;;;8.20;99.90;;;;;;5074543;28;19931;-65
2023/04/29 03:04:27;;;;;;;;;;;8.20;99.90;;;;;;5074700;28;19924;-66
2023/04/29 03:06:55;;;;;;;;;;;8.30;99.90;;;;;;5072948;28;19931;-65
2023/04/29 03:09:22;;;;;;;;;;;8.30;99.90;;;;;;5056782;28;19925;-66
2023/04/29 03:11:48;;;;;;;;;;;8.30;99.90;;;;;;5072873;28;19932;-66
2023/04/29 03:14:13;;;;;;;;;;;8.30;99.90;;;;;;5073067;28;19924;-66
2023/04/29 03:16:39;;;;;;;;;;;8.30;99.90;;;;;;5073602;28;20301;-66
2023/04/29 03:19:05;;;;;;;;;;;8.40;99.90;;;;;;5073237;28;19925;-66
2023/04/29 03:21:31;;;;;;;;;;;8.40;99.90;;;;;;5074148;28;20438;-66
2023/04/29 03:23:57;;;;;;;;;;;8.50;99.90;;;;;;5072710;28;19968;-65
2023/04/29 03:26:23;;;;;;;;;;;8.40;99.90;;;;;;5074062;28;19964;-65
2023/04/29 03:28:48;;;;;;;;;;;8.50;99.90;;;;;;5073560;28;20011;-66
2023/04/29 03:31:15;;;;;;;;;;;8.40;99.90;;;;;;5073130;28;20395;-65
2023/04/29 03:33:41;;;;;;;;;;;8.40;99.90;;;;;;5073405;28;19968;-65
2023/04/29 03:36:07;;;;;;;;;;;8.50;99.90;;;;;;5072721;28;20400;-66
2023/04/29 03:38:33;;;;;;;;;;;8.40;99.90;;;;;;5072290;28;20415;-66
2023/04/29 03:40:59;;;;;;;;;;;8.50;99.90;;;;;;5072163;28;20077;-65
2023/04/29 03:43:24;;;;;;;;;;;8.40;99.90;;;;;;5073827;28;19951;-65
2023/04/29 03:45:50;;;;;;;;;;;8.50;99.90;;;;;;5073210;28;19963;-65
2023/04/29 03:48:15;;;;;;;;;;;8.40;99.90;;;;;;5072527;28;19931;-66
2023/04/29 03:50:41;;;;;;;;;;;8.50;99.90;;;;;;5071890;28;20330;-66
2023/04/29 03:53:07;;;;;;;;;;;8.50;99.90;;;;;;5073635;28;20006;-66
2023/04/29 03:55:32;;;;;;;;;;;8.50;99.90;;;;;;5073519;28;19925;-66
2023/04/29 03:57:58;;;;;;;;;;;8.50;99.90;;;;;;5072996;28;20529;-66
2023/04/29 04:00:25;;;;;;;;;;;8.40;99.90;;;;;;5072162;28;19975;-66
2023/04/29 04:02:51;;;;;;;;;;;8.50;99.90;;;;;;5072963;28;19971;-66
2023/04/29 04:05:19;;;;;;;;;;;8.40;99.90;;;;;;5073279;28;20292;-66
2023/04/29 04:07:45;;;;;;;;;;;8.40;99.90;;;;;;5071453;28;20340;-66
2023/04/29 04:10:11;;;;;;;;;;;8.50;99.90;;;;;;5054387;28;20015;-66
2023/04/29 04:12:36;;;;;;;;;;;8.50;99.90;;;;;;5072813;28;20015;-66
2023/04/29 04:15:03;;;;;;;;;;;8.50;99.90;;;;;;5072613;28;19931;-66
2023/04/29 04:17:28;;;;;;;;;;;8.50;99.90;;;;;;5055248;28;19931;-66
2023/04/29 04:19:54;;;;;;;;;;;8.40;99.90;;;;;;5072487;28;19925;-66
2023/04/29 04:22:20;;;;;;;;;;;8.50;99.90;;;;;;5071691;28;19928;-65
2023/04/29 04:24:45;;;;;;;;;;;8.40;99.90;;;;;;5071212;28;20285;-65
2023/04/29 04:27:12;;;;;;;;;;;8.40;99.90;;;;;;5072730;28;19924;-64
2023/04/29 04:29:37;;;;;;;;;;;8.50;99.90;;;;;;5072117;28;20525;-65
2023/04/29 04:32:03;;;;;;;;;;;8.50;99.90;;;;;;5070582;28;19962;-65
2023/04/29 04:34:29;;;;;;;;;;;8.50;99.90;;;;;;5071374;28;19925;-66
2023/04/29 04:36:54;;;;;;;;;;;8.50;99.90;;;;;;5072268;28;19966;-66
2023/04/29 04:39:20;;;;;;;;;;;8.50;99.90;;;;;;5071036;28;19928;-66
2023/04/29 04:41:46;;;;;;;;;;;8.50;99.90;;;;;;5072089;28;20370;-67
2023/04/29 04:44:12;;;;;;;;;;;8.50;99.90;;;;;;5071346;28;20407;-66
2023/04/29 04:46:37;;;;;;;;;;;8.50;99.90;;;;;;5071663;28;19958;-66
2023/04/29 04:49:03;;;;;;;;;;;8.40;99.90;;;;;;5071224;28;20170;-66
2023/04/29 04:51:28;;;;;;;;;;;8.50;99.90;;;;;;5071382;28;19931;-66
2023/04/29 04:53:54;;;;;;;;;;;8.50;99.90;;;;;;5070662;28;19974;-66
2023/04/29 04:56:20;;;;;;;;;;;8.50;99.90;;;;;;5071290;28;19929;-67
2023/04/29 04:58:46;;;;;;;;;;;8.50;99.90;;;;;;5070874;28;19928;-67
2023/04/29 05:01:11;;;;;;;;;;;8.50;99.90;;;;;;5054591;28;20370;-66
2023/04/29 05:03:37;;;;;;;;;;;8.50;99.90;;;;;;5072444;28;19959;-66
2023/04/29 05:06:03;;;;;;;;;;;8.50;99.90;;;;;;5071977;28;20281;-65
2023/04/29 05:08:29;;;;;;;;;;;8.40;99.90;;;;;;5054600;28;19930;-65
2023/04/29 05:10:54;;;;;;;;;;;8.50;99.90;;;;;;5070848;28;19925;-65
2023/04/29 05:13:20;;;;;;;;;;;8.50;99.90;;;;;;5072234;28;20022;-65
2023/04/29 05:15:46;;;;;;;;;;;8.50;99.90;;;;;;5070831;28;20255;-65
2023/04/29 05:18:11;;;;;;;;;;;8.50;99.90;;;;;;5054034;28;19928;-65
2023/04/29 05:20:37;;;;;;;;;;;8.50;99.90;;;;;;5072031;28;19924;-66
2023/04/29 05:23:03;;;;;;;;;;;8.60;99.90;;;;;;5070573;28;20091;-66
2023/04/29 05:25:28;;;;;;;;;;;8.60;99.90;;;;;;5072302;28;19931;-66
2023/04/29 05:27:54;;;;;;;;;;;8.60;99.90;;;;;;5071802;28;20336;-65
2023/04/29 05:30:20;;;;;;;;;;;8.60;99.90;;;;;;5070800;28;19935;-65
2023/04/29 05:32:46;;;;;;;;;;;8.60;99.90;;;;;;5070895;28;19925;-66
2023/04/29 05:35:11;;;;;;;;;;;8.70;99.90;;;;;;5071557;28;19949;-66
2023/04/29 05:37:37;;;;;;;;;;;8.70;99.90;;;;;;5071093;28;19995;-65
2023/04/29 05:40:03;;;;;;;;;;;8.70;99.90;;;;;;5053430;28;19925;-65
2023/04/29 05:42:28;;;;;;;;;;;8.80;99.90;;;;;;5070645;28;19925;-65
2023/04/29 05:44:54;;;;;;;;;;;8.80;99.90;;;;;;5070537;28;19931;-66
2023/04/29 05:47:19;;;;;;;;;;;8.80;99.90;;;;;;5070639;28;19929;-66
2023/04/29 05:49:45;;;;;;;;;;;8.90;99.90;;;;;;5072024;28;20339;-66
2023/04/29 05:52:11;;;;;;;;;;;8.90;99.90;;;;;;5070117;28;19924;-66
2023/04/29 05:54:36;;;;;;;;;;;9.00;99.90;;;;;;5071799;28;19925;-66
2023/04/29 05:57:02;;;;;;;;;;;9.00;99.90;;;;;;5071450;28;19991;-66
2023/04/29 05:59:28;;;;;;;;;;;9.10;99.90;;;;;;5070777;28;20263;-66
2023/04/29 06:01:55;;;;;;;;;;;9.20;99.90;;;;;;5070577;28;20021;-67
2023/04/29 06:04:20;;;;;;;;;;;9.30;99.90;;;;;;5070671;28;19966;-66
2023/04/29 06:06:46;;;;;;;;;;;9.40;99.90;;;;;;5053986;28;19924;-66
2023/04/29 06:09:14;;;;;;;;;;;9.50;99.90;;;;;;5069967;28;19924;-66
2023/04/29 06:11:40;;;;;;;;;;;9.60;99.90;;;;;;5070699;28;20000;-66
2023/04/29 06:14:05;;;;;;;;;;;9.70;99.90;;;;;;5053544;28;19997;-66
2023/04/29 06:16:31;;;;;;;;;;;9.90;99.90;;;;;;5070637;28;19931;-66
2023/04/29 06:18:57;;;;;;;;;;;10.30;99.90;;;;;;5069985;28;20426;-67
2023/04/29 06:21:22;;;;;;;;;;;11.20;99.90;;;;;;5070040;28;20366;-66
2023/04/29 06:23:48;;;;;;;;;;;12.50;99.90;;;;;;5070126;28;20362;-66
2023/04/29 06:26:14;;;;;;;;;;;13.50;99.90;;;;;;5070078;28;19975;-66
2023/04/29 06:28:39;;;;;;;;;;;14.40;99.90;;;;;;5070451;28;20402;-66
2023/04/29 06:31:05;;;;;;;;;;;15.10;99.90;;;;;;5070117;28;19955;-66
2023/04/29 06:33:32;;;;;;;;;;;15.90;99.90;;;;;;5070585;28;19924;-66
2023/04/29 06:35:58;;;;;;;;;;;16.40;99.90;;;;;;5074854;28;20456;-67
2023/04/29 06:38:24;;;;;;;;;;;16.80;99.90;;;;;;5074818;28;19990;-66
2023/04/29 06:40:50;;;;;;;;;;;17.00;99.90;;;;;;5073668;28;20306;-66
2023/04/29 06:43:16;;;;;;;;;;;17.00;99.90;;;;;;5074726;28;19930;-66
2023/04/29 06:45:45;;;;;;;;;;;17.10;99.90;;;;;;5074999;28;19928;-66
2023/04/29 06:48:10;;;;;;;;;;;17.30;99.90;;;;;;5074471;28;20100;-66
2023/04/29 06:50:36;;;;;;;;;;;17.50;99.90;;;;;;5074003;28;20247;-66
2023/04/29 06:53:02;;;;;;;;;;;17.60;99.90;;;;;;5074273;28;20006;-67
2023/04/29 06:55:27;;;;;;;;;;;17.70;99.90;;;;;;5073550;28;19965;-67
2023/04/29 06:57:53;;;;;;;;;;;18.10;99.90;;;;;;5075078;28;20384;-66
2023/04/29 07:00:19;;;;;;;;;;;18.10;99.90;;;;;;5073231;28;20003;-66
2023/04/29 07:02:45;;;;;;;;;;;18.40;99.90;;;;;;5073594;28;20270;-66
2023/04/29 07:05:11;;;;;;;;;;;18.70;99.90;;;;;;5056719;28;20042;-66
2023/04/29 07:07:37;;;;;;;;;;;18.90;99.90;;;;;;5073642;28;19931;-66
2023/04/29 07:10:02;;;;;;;;;;;19.10;99.90;;;;;;5073092;28;19947;-67
2023/04/29 07:12:28;;;;;;;;;;;19.10;99.90;;;;;;5074452;28;19924;-66
2023/04/29 07:14:53;;;;;;;;;;;19.50;99.90;;;;;;5073010;28;20342;-66
2023/04/29 07:17:19;;;;;;;;;;;19.70;99.90;;;;;;5072854;28;20286;-66
2023/04/29 07:19:45;;;;;;;;;;;19.80;99.90;;;;;;5074213;28;19975;-66
2023/04/29 07:22:11;;;;;;;;;;;19.70;99.90;;;;;;5073904;28;19931;-65
2023/04/29 07:24:37;;;;;;;;;;;19.40;99.90;;;;;;5072915;28;19924;-66
2023/04/29 07:27:03;;;;;;;;;;;19.20;99.80;;;;;;5074175;28;20002;-66
2023/04/29 07:29:28;;;;;;;;;;;19.40;99.90;;;;;;5056151;28;19974;-66
2023/04/29 07:31:54;;;;;;;;;;;19.60;99.90;;;;;;5073281;28;19924;-66
2023/04/29 07:34:20;;;;;;;;;;;19.40;99.90;;;;;;5039357;28;19932;-65
2023/04/29 07:36:46;;;;;;;;;;;19.60;98.40;;;;;;5072744;28;20078;-67
2023/04/29 07:39:14;;;;;;;;;;;19.90;99.90;;;;;;5071256;28;20396;-66
2023/04/29 07:41:40;;;;;;;;;;;20.40;99.20;;;;;;5073784;28;19929;-67
2023/04/29 07:44:05;;;;;;;;;;;20.40;99.40;;;;;;5073604;28;19947;-67
2023/04/29 07:46:31;;;;;;;;;;;20.50;97.90;;;;;;5072187;28;19975;-66
2023/04/29 07:48:57;;;;;;;;;;;20.70;98.60;;;;;;5039511;28;19970;-66
2023/04/29 07:51:22;;;;;;;;;;;21.10;98.00;;;;;;5072089;28;19924;-66
2023/04/29 07:53:48;;;;;;;;;;;21.10;96.10;;;;;;5073215;28;19950;-66
2023/04/29 07:56:13;;;;;;;;;;;21.10;97.60;;;;;;5073132;28;19924;-66
2023/04/29 07:58:39;;;;;;;;;;;21.10;98.00;;;;;;5055845;28;20350;-66
2023/04/29 08:01:09;;;;;;;;;;;21.40;97.30;;;;;;5055423;28;20010;-66
2023/04/29 08:03:35;;;;;;;;;;;21.90;96.90;;;;;;5071926;28;19947;-66
2023/04/29 08:06:02;;;;;;;;;;;22.30;96.20;;;;;;5073244;28;20373;-66
2023/04/29 08:08:28;;;;;;;;;;;22.00;95.30;;;;;;5072934;28;19924;-66
2023/04/29 08:10:53;;;;;;;;;;;21.90;95.90;;;;;;5072169;28;19947;-66
2023/04/29 08:13:19;;;;;;;;;;;22.00;94.40;;;;;;5071762;28;19928;-65
2023/04/29 08:15:45;;;;;;;;;;;21.90;95.50;;;;;;5071697;28;19932;-66
2023/04/29 08:18:10;;;;;;;;;;;22.10;94.70;;;;;;5073281;28;19924;-66
2023/04/29 08:20:36;;;;;;;;;;;22.20;93.70;;;;;;5071803;28;20415;-66
2023/04/29 08:23:01;;;;;;;;;;;22.20;94.00;;;;;;5073105;28;20015;-66
2023/04/29 08:25:27;;;;;;;;;;;22.10;94.40;;;;;;5071728;28;19962;-66
2023/04/29 08:27:53;;;;;;;;;;;21.90;94.40;;;;;;5055236;28;19970;-67
2023/04/29 08:30:19;;;;;;;;;;;22.10;93.40;;;;;;5071158;28;19928;-67
2023/04/29 08:32:44;;;;;;;;;;;21.90;93.50;;;;;;5072760;28;19924;-67
2023/04/29 08:35:10;;;;;;;;;;;21.60;94.50;;;;;;5054758;28;20600;-67
2023/04/29 08:37:36;;;;;;;;;;;21.60;93.50;;;;;;5072484;28;20258;-66
2023/04/29 08:40:02;;;;;;;;;;;21.60;94.30;;;;;;5071098;28;19925;-67
2023/04/29 08:42:32;;;;;;;;;;;21.60;93.10;;;;;;5054400;28;20339;-66
2023/04/29 08:44:58;;;;;;;;;;;21.90;93.20;;;;;;5071406;28;19924;-67
2023/04/29 08:47:25;;;;;;;;;;;21.90;92.60;;;;;;5072288;28;19947;-67
2023/04/29 08:49:50;;;;;;;;;;;21.50;92.80;;;;;;5055092;28;19925;-67
2023/04/29 08:52:16;;;;;;;;;;;21.50;91.90;;;;;;5072502;28;19924;-68
2023/04/29 08:54:41;;;;;;;;;;;21.60;91.80;;;;;;5071267;28;19971;-66
2023/04/29 08:57:09;;;;;;;;;;;21.50;91.40;;;;;;5054429;28;19924;-66
2023/04/29 08:59:35;;;;;;;;;;;21.70;91.60;;;;;;5054435;28;19974;-67
2023/04/29 09:02:01;;;;;;;;;;;21.60;91.10;;;;;;5071292;28;20362;-67
2023/04/29 09:04:29;;;;;;;;;;;21.70;90.60;;;;;;5070775;28;20436;-67
2023/04/29 09:06:56;;;;;;;;;;;21.40;90.20;;;;;;5071519;28;19924;-67
2023/04/29 09:09:23;;;;;;;;;;;21.00;90.10;;;;;;5070969;28;19924;-67
2023/04/29 09:11:48;;;;;;;;;;;21.10;90.70;;;;;;5071485;28;19925;-65
2023/04/29 09:14:15;;;;;;;;;;;21.10;90.80;;;;;;5071134;28;19932;-66
2023/04/29 09:16:40;;;;;;;;;;;21.20;90.80;;;;;;5054169;28;19925;-66
2023/04/29 09:19:06;;;;;;;;;;;21.30;90.60;;;;;;5071895;28;20121;-66
2023/04/29 09:21:32;;;;;;;;;;;21.40;91.30;;;;;;5070530;28;19924;-66
2023/04/29 09:24:01;;;;;;;;;;;21.30;90.40;;;;;;5054408;28;19932;-66
2023/04/29 09:26:33;;;;;;;;;;;21.50;90.60;;;;;;5071785;28;20297;-66
2023/04/29 09:29:05;;;;;;;;;;;21.60;89.10;;;;;;5072232;28;19924;-66
2023/04/29 09:31:31;;;;;;;;;;;21.50;89.70;;;;;;5070498;28;19925;-66
2023/04/29 09:33:57;;;;;;;;;;;21.70;91.00;;;;;;5104811;28;20408;-66
2023/04/29 09:36:36;;;;;;;;;;;21.30;90.10;;;;;;5070520;28;19932;-68
2023/04/29 09:39:04;;;;;;;;;;;21.20;90.80;;;;;;5070600;28;19971;-66
2023/04/29 09:41:30;;;;;;;;;;;20.60;91.20;;;;;;5104468;28;19928;-67
2023/04/29 09:44:05;;;;;;;;;;;19.80;91.00;;;;;;5072138;28;19959;-66
2023/04/29 09:46:32;;;;;;;;;;;19.10;91.20;;;;;;5071729;28;19924;-66
2023/04/29 09:48:57;;;;;;;;;;;18.60;91.70;;;;;;5072155;28;20024;-65
2023/04/29 09:51:23;;;;;;;;;;;18.30;92.70;;;;;;5071928;28;19924;-66
2023/04/29 09:53:49;;;;;;;;;;;18.10;93.00;;;;;;5071708;28;19924;-67
2023/04/29 09:56:15;;;;;;;;;;;17.90;94.60;;;;;;5054466;28;20386;-66
2023/04/29 09:58:41;;;;;;;;;;;17.50;95.40;;;;;;5037547;28;19971;-66
2023/04/29 10:01:07;;;;;;;;;;;17.60;96.00;;;;;;5071890;28;20318;-65
2023/04/29 10:03:33;;;;;;;;;;;17.90;95.70;;;;;;5054038;28;19982;-66
2023/04/29 10:06:00;;;;;;;;;;;18.10;95.30;;;;;;5070840;28;19990;-66
2023/04/29 10:08:26;;;;;;;;;;;17.70;95.00;;;;;;5070953;28;20370;-67
2023/04/29 10:10:56;;;;;;;;;;;17.40;95.30;;;;;;5074546;28;19963;-65
2023/04/29 10:13:26;;;;;;;;;;;17.30;96.40;;;;;;5075649;28;19977;-65
2023/04/29 10:15:57;;;;;;;;;;;17.30;95.50;;;;;;5073872;28;20011;-67
2023/04/29 10:18:28;;;;;;;;;;;17.20;95.40;;;;;;5074806;28;19932;-66
2023/04/29 10:20:55;;;;;;;;;;;17.20;94.90;;;;;;5074641;28;19991;-66
2023/04/29 10:23:22;;;;;;;;;;;17.30;94.40;;;;;;5057811;28;20011;-65
2023/04/29 10:25:51;;;;;;;;;;;17.30;94.10;;;;;;5073692;28;20141;-65
2023/04/29 10:28:18;;;;;;;;;;;17.00;93.60;;;;;;5057683;28;19932;-66
2023/04/29 10:30:44;;;;;;;;;;;17.00;93.60;;;;;;5073638;28;20003;-65
2023/04/29 10:33:11;;;;;;;;;;;16.90;93.70;;;;;;5073969;28;19987;-65
2023/04/29 10:35:36;;;;;;;;;;;16.70;93.40;;;;;;5074673;28;19931;-66
2023/04/29 10:38:10;;;;;;;;;;;16.70;93.40;;;;;;5074096;28;19924;-66
2023/04/29 10:40:41;;;;;;;;;;;16.80;91.70;;;;;;5056303;28;19925;-66
2023/04/29 10:43:07;;;;;;;;;;;16.70;92.10;;;;;;5075032;28;19924;-66
2023/04/29 10:45:35;;;;;;;;;;;16.70;91.20;;;;;;5073738;28;19931;-67
2023/04/29 10:48:10;;;;;;;;;;;16.60;91.20;;;;;;5074878;28;20234;-66
2023/04/29 10:50:36;;;;;;;;;;;16.50;91.30;;;;;;5074480;28;20027;-66
2023/04/29 10:53:02;;;;;;;;;;;16.60;91.90;;;;;;5074587;28;20370;-65
2023/04/29 10:55:28;;;;;;;;;;;16.70;91.70;;;;;;5073398;28;19924;-65
2023/04/29 10:57:57;;;;;;;;;;;16.60;91.90;;;;;;5073371;28;20388;-65
2023/04/29 11:00:26;;;;;;;;;;;16.40;90.70;;;;;;5074866;28;19947;-65
2023/04/29 11:02:58;;;;;;;;;;;16.50;90.70;;;;;;5074171;28;20293;-66
2023/04/29 11:05:34;;;;;;;;;;;16.70;90.90;;;;;;5073381;28;20350;-65
2023/04/29 11:08:15;;;;;;;;;;;16.80;91.00;;;;;;5073403;28;19944;-65
2023/04/29 11:10:41;;;;;;;;;;;16.70;90.80;;;;;;5072886;28;20286;-66
2023/04/29 11:13:19;;;;;;;;;;;16.70;91.80;;;;;;5073700;28;19963;-66
2023/04/29 11:15:45;;;;;;;;;;;16.70;90.40;;;;;;5072718;28;20011;-66
2023/04/29 11:18:11;;;;;;;;;;;16.40;90.20;;;;;;5074454;28;20417;-66
2023/04/29 11:20:55;;;;;;;;;;;16.40;90.80;;;;;;5072411;28;19924;-67
2023/04/29 11:23:23;;;;;;;;;;;16.20;91.10;;;;;;5073509;28;19925;-65
2023/04/29 11:25:48;;;;;;;;;;;16.10;91.30;;;;;;5072837;28;19931;-66
2023/04/29 11:28:14;;;;;;;;;;;16.00;92.20;;;;;;5074189;28;20023;-65
2023/04/29 11:30:40;;;;;;;;;;;16.00;93.00;;;;;;5072629;28;19929;-66
2023/04/29 11:33:07;;;;;;;;;;;16.00;93.70;;;;;;5040046;28;19929;-65
2023/04/29 11:35:33;;;;;;;;;;;15.90;93.70;;;;;;5072865;28;19924;-65
2023/04/29 11:37:59;;;;;;;;;;;15.80;93.60;;;;;;5072441;28;19925;-66
2023/04/29 11:40:24;;;;;;;;;;;15.80;93.70;;;;;;5055832;28;19978;-66
2023/04/29 11:42:50;;;;;;;;;;;15.90;93.20;;;;;;5073320;28;19924;-66
2023/04/29 11:45:16;;;;;;;;;;;15.70;92.30;;;;;;5073942;28;19931;-66
2023/04/29 11:47:43;;;;;;;;;;;15.60;93.50;;;;;;5072222;28;20373;-66
2023/04/29 11:50:09;;;;;;;;;;;15.80;95.00;;;;;;5072540;28;19924;-66
2023/04/29 11:52:36;;;;;;;;;;;15.90;93.90;;;;;;5073696;28;19925;-66
2023/04/29 11:55:07;;;;;;;;;;;15.90;94.70;;;;;;5073118;28;19925;-66
2023/04/29 11:57:33;;;;;;;;;;;16.10;95.50;;;;;;5072858;28;19924;-66
2023/04/29 11:59:58;;;;;;;;;;;16.20;95.10;;;;;;5072868;28;19932;-66
2023/04/29 12:02:31;;;;;;;;;;;16.20;94.30;;;;;;5072560;28;20005;-66
2023/04/29 12:04:57;;;;;;;;;;;16.30;93.30;;;;;;5073108;28;19924;-66
2023/04/29 12:07:23;;;;;;;;;;;16.10;93.20;;;;;;5072164;28;19931;-66
2023/04/29 12:09:49;;;;;;;;;;;16.10;93.30;;;;;;5072911;28;19994;-66
2023/04/29 12:12:15;;;;;;;;;;;16.00;93.90;;;;;;5055438;28;19928;-66
2023/04/29 12:14:41;;;;;;;;;;;16.00;93.30;;;;;;5055355;28;20007;-66
2023/04/29 12:17:08;;;;;;;;;;;15.80;93.60;;;;;;5072003;28;19924;-66
2023/04/29 12:19:37;;;;;;;;;;;15.70;94.40;;;;;;5072038;28;19924;-66
2023/04/29 12:22:03;;;;;;;;;;;15.70;93.10;;;;;;5072776;28;20529;-66
2023/04/29 12:24:31;;;;;;;;;;;15.80;92.50;;;;;;5039009;28;19947;-66
2023/04/29 12:26:59;;;;;;;;;;;15.90;91.80;;;;;;5072693;28;20401;-66
2023/04/29 12:29:25;;;;;;;;;;;15.90;91.30;;;;;;5055118;28;20362;-66
2023/04/29 12:31:50;;;;;;;;;;;15.90;92.30;;;;;;5070606;28;19925;-66
2023/04/29 12:34:16;;;;;;;;;;;16.00;91.10;;;;;;5072564;28;19983;-66
2023/04/29 12:36:41;;;;;;;;;;;16.10;90.80;;;;;;5071717;28;19925;-66
2023/04/29 12:39:09;;;;;;;;;;;16.20;91.80;;;;;;5071312;28;20023;-66
2023/04/29 12:41:35;;;;;;;;;;;16.30;91.90;;;;;;5071658;28;19924;-66
2023/04/29 12:44:03;;;;;;;;;;;16.40;92.30;;;;;;5071411;28;19924;-67
2023/04/29 12:46:32;;;;;;;;;;;16.30;91.40;;;;;;5071762;28;19925;-66
2023/04/29 12:49:00;;;;;;;;;;;16.20;90.60;;;;;;5072458;28;19925;-66
2023/04/29 12:51:26;;;;;;;;;;;16.40;91.00;;;;;;5072612;28;19960;-66
2023/04/29 12:53:51;;;;;;;;;;;16.40;91.00;;;;;;5072087;28;20385;-67
2023/04/29 12:56:17;;;;;;;;;;;16.60;91.70;;;;;;5071622;28;19924;-67
2023/04/29 12:58:43;;;;;;;;;;;16.60;92.70;;;;;;5071285;28;19924;-66
2023/04/29 13:01:08;;;;;;;;;;;16.60;93.10;;;;;;5054596;28;20554;-66
2023/04/29 13:03:34;;;;;;;;;;;16.50;92.90;;;;;;5072394;28;20028;-67
2023/04/29 13:06:01;;;;;;;;;;;16.40;93.40;;;;;;5070960;28;20055;-67
2023/04/29 13:08:27;;;;;;;;;;;16.30;94.30;;;;;;5071588;28;19976;-67
2023/04/29 13:10:52;;;;;;;;;;;16.10;93.80;;;;;;5072014;28;19968;-66
2023/04/29 13:13:18;;;;;;;;;;;15.90;94.40;;;;;;5072535;28;19924;-66
2023/04/29 13:15:43;;;;;;;;;;;15.90;95.40;;;;;;5072244;28;19924;-66
2023/04/29 13:18:09;;;;;;;;;;;16.00;96.00;;;;;;5054515;28;19928;-67
2023/04/29 13:20:35;;;;;;;;;;;16.00;96.10;;;;;;5054756;28;19963;-66
2023/04/29 13:23:00;;;;;;;;;;;15.90;96.70;;;;;;5070631;28;19985;-66
2023/04/29 13:25:26;;;;;;;;;;;15.80;96.40;;;;;;5071138;28;19929;-66
2023/04/29 13:27:52;;;;;;;;;;;15.50;96.60;;;;;;5072200;28;19924;-68
2023/04/29 13:30:17;;;;;;;;;;;15.40;96.40;;;;;;5072127;28;20289;-66
2023/04/29 13:32:43;;;;;;;;;;;15.30;96.90;;;;;;5054516;28;20250;-66
2023/04/29 13:35:09;;;;;;;;;;;15.20;96.90;;;;;;5070372;28;19979;-67
2023/04/29 13:37:34;;;;;;;;;;;15.20;96.50;;;;;;5104759;28;20282;-66
2023/04/29 13:40:00;;;;;;;;;;;15.20;97.50;;;;;;5070386;28;19931;-67
2023/04/29 13:42:25;;;;;;;;;;;15.10;96.90;;;;;;5054548;28;20443;-67
2023/04/29 13:44:54;;;;;;;;;;;15.10;97.60;;;;;;5075217;28;19924;-67
2023/04/29 13:47:21;;;;;;;;;;;15.00;98.20;;;;;;5074533;28;19928;-67
2023/04/29 13:49:46;;;;;;;;;;;15.00;98.40;;;;;;5058547;28;20284;-67
2023/04/29 13:52:12;;;;;;;;;;;14.90;98.80;;;;;;5074847;28;19924;-67
2023/04/29 13:54:38;;;;;;;;;;;14.90;99.40;;;;;;5074763;28;19948;-67
2023/04/29 13:57:04;;;;;;;;;;;14.80;99.30;;;;;;5074639;28;20416;-67
2023/04/29 13:59:30;;;;;;;;;;;14.70;99.70;;;;;;5057989;28;19928;-67
2023/04/29 14:01:56;;;;;;;;;;;14.70;99.90;;;;;;5074865;28;19931;-68
2023/04/29 14:04:22;;;;;;;;;;;14.70;99.90;;;;;;5074581;28;19986;-67
2023/04/29 14:06:48;;;;;;;;;;;14.70;99.90;;;;;;5074777;28;19932;-67
2023/04/29 14:09:14;;;;;;;;;;;14.70;99.90;;;;;;5074416;28;19924;-67
2023/04/29 14:11:40;;;;;;;;;;;14.60;99.90;;;;;;5075682;28;19928;-66
2023/04/29 14:14:06;;;;;;;;;;;14.50;99.90;;;;;;5057670;28;20396;-66
2023/04/29 14:16:31;;;;;;;;;;;14.50;99.90;;;;;;5074336;28;20442;-66
2023/04/29 14:18:57;;;;;;;;;;;14.50;99.90;;;;;;5075520;28;19930;-66